createdAt,value
2018-09-30T00:00:47.392Z,22.5
2018-09-30T00:01:52.642Z,22.5
2018-09-30T00:02:57.813Z,22.5
2018-09-30T00:04:02.918Z,22.5
2018-09-30T00:05:08.638Z,22.5
2018-09-30T00:06:14.178Z,22.5
2018-09-30T00:07:19.444Z,22.5
2018-09-30T00:08:24.370Z,22.5
2018-09-30T00:09:30.252Z,22.5
2018-09-30T00:10:35.396Z,22.5
2018-09-30T00:11:40.543Z,22.5
2018-09-30T00:12:45.656Z,22.5
2018-09-30T00:13:50.539Z,22.5
2018-09-30T00:14:55.681Z,22.5
2018-09-30T00:16:01.450Z,22.5
2018-09-30T00:17:05.482Z,22.5
2018-09-30T00:18:10.638Z,22.5
2018-09-30T00:19:16.108Z,22.5
2018-09-30T00:20:21.375Z,22.5
2018-09-30T00:21:26.777Z,22.5
2018-09-30T00:22:31.918Z,22.5
2018-09-30T00:23:36.853Z,22.5
2018-09-30T00:24:42.550Z,22.5
2018-09-30T00:25:47.690Z,22.5
2018-09-30T00:26:53.191Z,22.5
2018-09-30T00:27:58.895Z,22.5
2018-09-30T00:29:04.014Z,22.5
2018-09-30T00:30:09.183Z,22.5
2018-09-30T00:31:14.954Z,22.5
2018-09-30T00:32:20.441Z,22.5
2018-09-30T00:33:26.438Z,22.5
2018-09-30T00:34:31.064Z,22.5
2018-09-30T00:35:36.226Z,22.5
2018-09-30T00:36:41.625Z,22.5
2018-09-30T00:37:46.506Z,22.5
2018-09-30T00:38:51.654Z,22.6
2018-09-30T00:39:57.482Z,22.5
2018-09-30T00:41:02.348Z,22.5
2018-09-30T00:42:06.781Z,22.5
2018-09-30T00:43:12.508Z,22.5
2018-09-30T00:44:17.642Z,22.5
2018-09-30T00:45:22.595Z,22.5
2018-09-30T00:46:28.717Z,22.5
2018-09-30T00:47:33.858Z,22.5
2018-09-30T00:48:39.286Z,22.5
2018-09-30T00:49:44.756Z,22.5
2018-09-30T00:50:49.905Z,22.5
2018-09-30T00:51:55.498Z,22.5
2018-09-30T00:53:00.727Z,22.5
2018-09-30T00:54:05.877Z,22.5
2018-09-30T00:55:11.441Z,22.6
2018-09-30T00:56:16.875Z,22.5
2018-09-30T00:57:21.775Z,22.5
2018-09-30T00:58:27.651Z,22.5
2018-09-30T00:59:33.090Z,22.5
2018-09-30T01:00:38.804Z,22.6
2018-09-30T01:01:43.671Z,22.5
2018-09-30T01:02:49.149Z,22.5
2018-09-30T01:03:54.563Z,22.5
2018-09-30T01:05:00.003Z,22.6
2018-09-30T01:06:04.663Z,22.5
2018-09-30T01:07:10.072Z,22.6
2018-09-30T01:08:15.334Z,22.6
2018-09-30T01:09:20.592Z,22.6
2018-09-30T01:10:40.450Z,22.6
2018-09-30T01:11:45.688Z,22.6
2018-09-30T01:12:50.793Z,22.5
2018-09-30T01:13:55.737Z,22.6
2018-09-30T01:15:00.342Z,22.6
2018-09-30T01:16:05.615Z,22.6
2018-09-30T01:17:10.516Z,22.6
2018-09-30T01:18:15.390Z,22.6
2018-09-30T01:19:20.662Z,22.6
2018-09-30T01:20:25.816Z,22.6
2018-09-30T01:21:31.209Z,22.6
2018-09-30T01:22:36.638Z,22.6
2018-09-30T01:23:41.551Z,22.6
2018-09-30T01:24:46.674Z,22.6
2018-09-30T01:25:52.099Z,22.6
2018-09-30T01:26:57.608Z,22.6
2018-09-30T01:28:02.470Z,22.6
2018-09-30T01:29:07.087Z,22.6
2018-09-30T01:30:12.246Z,22.6
2018-09-30T01:31:17.788Z,22.6
2018-09-30T01:32:22.445Z,22.6
2018-09-30T01:33:28.327Z,22.6
2018-09-30T01:34:33.591Z,22.6
2018-09-30T01:35:39.049Z,22.6
2018-09-30T01:36:44.442Z,22.6
2018-09-30T01:37:49.636Z,22.6
2018-09-30T01:38:54.911Z,22.6
2018-09-30T01:40:00.637Z,22.6
2018-09-30T01:41:05.556Z,22.6
2018-09-30T01:42:10.756Z,22.5
2018-09-30T01:43:16.298Z,22.6
2018-09-30T01:44:21.734Z,22.5
2018-09-30T01:45:27.691Z,22.5
2018-09-30T01:46:32.297Z,22.5
2018-09-30T01:47:37.468Z,22.6
2018-09-30T01:48:43.009Z,22.6
2018-09-30T01:49:47.922Z,22.5
2018-09-30T01:50:53.091Z,22.6
2018-09-30T01:51:58.080Z,22.6
2018-09-30T01:53:02.982Z,22.6
2018-09-30T01:54:08.440Z,22.6
2018-09-30T01:55:13.301Z,22.5
2018-09-30T01:56:18.793Z,22.6
2018-09-30T01:57:24.227Z,22.6
2018-09-30T01:58:44.426Z,22.6
2018-09-30T01:59:49.859Z,22.5
2018-09-30T02:00:55.557Z,22.6
2018-09-30T02:02:00.429Z,22.5
2018-09-30T02:03:05.011Z,22.5
2018-09-30T02:04:10.778Z,22.6
2018-09-30T02:05:15.926Z,22.5
2018-09-30T02:06:21.396Z,22.6
2018-09-30T02:07:26.969Z,22.5
2018-09-30T02:08:31.847Z,22.6
2018-09-30T02:09:37.242Z,22.5
2018-09-30T02:10:42.668Z,22.5
2018-09-30T02:11:47.537Z,22.6
2018-09-30T02:12:53.134Z,22.6
2018-09-30T02:13:58.573Z,22.5
2018-09-30T02:15:03.730Z,22.5
2018-09-30T02:16:08.898Z,22.5
2018-09-30T02:17:14.113Z,22.5
2018-09-30T02:18:19.299Z,22.5
2018-09-30T02:19:24.549Z,22.5
2018-09-30T02:20:30.013Z,22.5
2018-09-30T02:21:35.577Z,22.5
2018-09-30T02:22:40.471Z,22.5
2018-09-30T02:23:45.617Z,22.5
2018-09-30T02:24:51.341Z,22.5
2018-09-30T02:25:56.248Z,22.5
2018-09-30T02:27:01.548Z,22.5
2018-09-30T02:28:06.821Z,22.5
2018-09-30T02:29:11.985Z,22.5
2018-09-30T02:30:16.961Z,22.5
2018-09-30T02:31:22.372Z,22.5
2018-09-30T02:32:26.965Z,22.5
2018-09-30T02:33:32.744Z,22.5
2018-09-30T02:34:37.056Z,22.5
2018-09-30T02:35:42.197Z,22.5
2018-09-30T02:36:47.522Z,22.5
2018-09-30T02:37:52.282Z,22.5
2018-09-30T02:38:57.510Z,22.5
2018-09-30T02:40:02.791Z,22.5
2018-09-30T02:41:08.271Z,22.5
2018-09-30T02:42:13.479Z,22.5
2018-09-30T02:43:19.069Z,22.5
2018-09-30T02:44:24.274Z,22.5
2018-09-30T02:45:29.718Z,22.5
2018-09-30T02:46:34.893Z,22.5
2018-09-30T02:47:40.109Z,22.5
2018-09-30T02:48:45.247Z,22.5
2018-09-30T02:49:50.505Z,22.5
2018-09-30T02:50:55.671Z,22.5
2018-09-30T02:52:01.259Z,22.5
2018-09-30T02:53:06.226Z,22.5
2018-09-30T02:54:11.714Z,22.5
2018-09-30T02:55:16.843Z,22.5
2018-09-30T02:56:21.996Z,22.5
2018-09-30T02:57:27.323Z,22.5
2018-09-30T02:58:32.236Z,22.5
2018-09-30T02:59:37.102Z,22.5
2018-09-30T03:00:42.304Z,22.5
2018-09-30T03:01:47.494Z,22.5
2018-09-30T03:02:52.921Z,22.5
2018-09-30T03:03:58.480Z,22.5
2018-09-30T03:05:03.639Z,22.5
2018-09-30T03:06:08.231Z,22.5
2018-09-30T03:07:14.047Z,22.5
2018-09-30T03:08:19.554Z,22.5
2018-09-30T03:10:44.499Z,22.5
2018-09-30T03:11:49.925Z,22.5
2018-09-30T03:12:55.433Z,22.5
2018-09-30T03:14:00.705Z,22.5
2018-09-30T03:15:05.325Z,22.5
2018-09-30T03:16:11.149Z,22.5
2018-09-30T03:17:16.370Z,22.5
2018-09-30T03:18:21.268Z,22.5
2018-09-30T03:19:26.905Z,22.5
2018-09-30T03:20:32.103Z,22.5
2018-09-30T03:21:37.655Z,22.5
2018-09-30T03:22:43.153Z,22.5
2018-09-30T03:23:48.644Z,22.5
2018-09-30T03:24:54.444Z,22.5
2018-09-30T03:25:59.103Z,22.5
2018-09-30T03:27:03.704Z,22.5
2018-09-30T03:28:09.114Z,22.5
2018-09-30T03:29:13.700Z,22.5
2018-09-30T03:30:18.571Z,22.5
2018-09-30T03:31:24.289Z,22.5
2018-09-30T03:32:29.873Z,22.5
2018-09-30T03:33:35.411Z,22.5
2018-09-30T03:34:40.642Z,22.5
2018-09-30T03:35:46.076Z,22.5
2018-09-30T03:36:51.397Z,22.5
2018-09-30T03:37:56.250Z,22.5
2018-09-30T03:39:01.166Z,22.5
2018-09-30T03:40:06.192Z,22.5
2018-09-30T03:41:11.417Z,22.5
2018-09-30T03:42:16.852Z,22.5
2018-09-30T03:43:22.245Z,22.5
2018-09-30T03:44:26.919Z,22.5
2018-09-30T03:45:32.639Z,22.5
2018-09-30T03:46:37.215Z,22.5
2018-09-30T03:47:42.723Z,22.5
2018-09-30T03:48:48.119Z,22.5
2018-09-30T03:49:53.086Z,22.5
2018-09-30T03:50:58.105Z,22.5
2018-09-30T03:52:02.925Z,22.5
2018-09-30T03:53:07.581Z,22.5
2018-09-30T03:54:13.031Z,22.5
2018-09-30T03:55:18.312Z,22.5
2018-09-30T03:56:23.373Z,22.5
2018-09-30T03:57:29.125Z,22.5
2018-09-30T03:58:34.560Z,22.5
2018-09-30T03:59:39.170Z,22.5
2018-09-30T04:00:44.730Z,22.5
2018-09-30T04:01:50.211Z,22.5
2018-09-30T04:02:55.669Z,22.5
2018-09-30T04:04:01.538Z,22.5
2018-09-30T04:05:06.402Z,22.5
2018-09-30T04:06:11.395Z,22.5
2018-09-30T04:07:17.170Z,22.5
2018-09-30T04:08:22.327Z,22.5
2018-09-30T04:09:28.068Z,22.5
2018-09-30T04:10:33.381Z,22.5
2018-09-30T04:11:38.531Z,22.5
2018-09-30T04:12:43.852Z,22.5
2018-09-30T04:13:49.317Z,22.5
2018-09-30T04:14:54.183Z,22.5
2018-09-30T04:16:00.084Z,22.5
2018-09-30T04:17:04.702Z,22.5
2018-09-30T04:18:10.969Z,22.5
2018-09-30T04:19:16.740Z,22.5
2018-09-30T04:20:21.607Z,22.5
2018-09-30T04:21:26.864Z,22.5
2018-09-30T04:22:33.072Z,22.5
2018-09-30T04:23:38.284Z,22.5
2018-09-30T04:24:43.427Z,22.5
2018-09-30T04:25:48.591Z,22.5
2018-09-30T04:26:53.479Z,22.5
2018-09-30T04:27:59.363Z,22.5
2018-09-30T04:29:04.389Z,22.5
2018-09-30T04:30:09.921Z,22.5
2018-09-30T04:31:15.204Z,22.5
2018-09-30T04:32:20.110Z,22.5
2018-09-30T04:33:26.108Z,22.5
2018-09-30T04:34:31.527Z,22.5
2018-09-30T04:35:36.986Z,22.5
2018-09-30T04:36:42.425Z,22.5
2018-09-30T04:37:47.579Z,22.5
2018-09-30T04:38:53.114Z,22.5
2018-09-30T04:39:58.668Z,22.5
2018-09-30T04:41:03.693Z,22.5
2018-09-30T04:42:09.185Z,22.5
2018-09-30T04:43:14.111Z,22.5
2018-09-30T04:44:18.772Z,22.5
2018-09-30T04:45:23.968Z,22.5
2018-09-30T04:46:44.127Z,22.5
2018-09-30T04:47:49.698Z,22.5
2018-09-30T04:48:54.871Z,22.4
2018-09-30T04:50:00.036Z,22.4
2018-09-30T04:51:05.740Z,22.5
2018-09-30T04:52:10.914Z,22.5
2018-09-30T04:53:16.430Z,22.5
2018-09-30T04:54:21.866Z,22.5
2018-09-30T04:55:27.761Z,22.5
2018-09-30T04:56:33.191Z,22.5
2018-09-30T04:57:38.771Z,22.5
2018-09-30T04:58:43.397Z,22.4
2018-09-30T04:59:48.860Z,22.4
2018-09-30T05:00:54.641Z,22.4
2018-09-30T05:02:00.160Z,22.5
2018-09-30T05:03:05.310Z,22.4
2018-09-30T05:04:10.548Z,22.4
2018-09-30T05:05:15.997Z,22.4
2018-09-30T05:06:20.897Z,22.4
2018-09-30T05:07:40.705Z,22.4
2018-09-30T05:08:46.137Z,22.4
2018-09-30T05:09:51.287Z,22.4
2018-09-30T05:10:56.458Z,22.4
2018-09-30T05:12:01.337Z,22.4
2018-09-30T05:13:06.011Z,22.5
2018-09-30T05:14:11.159Z,22.4
2018-09-30T05:15:16.037Z,22.4
2018-09-30T05:16:21.604Z,22.4
2018-09-30T05:17:27.169Z,22.4
2018-09-30T05:18:32.997Z,22.4
2018-09-30T05:19:37.962Z,22.4
2018-09-30T05:20:43.391Z,22.4
2018-09-30T05:21:49.151Z,22.4
2018-09-30T05:22:54.659Z,22.4
2018-09-30T05:23:59.607Z,22.4
2018-09-30T05:25:04.828Z,22.4
2018-09-30T05:26:09.422Z,22.4
2018-09-30T05:27:14.292Z,22.4
2018-09-30T05:28:19.459Z,22.4
2018-09-30T05:29:24.604Z,22.4
2018-09-30T05:30:29.925Z,22.4
2018-09-30T05:31:35.406Z,22.5
2018-09-30T05:32:40.831Z,22.4
2018-09-30T05:33:46.334Z,22.4
2018-09-30T05:34:51.807Z,22.4
2018-09-30T05:35:57.307Z,22.4
2018-09-30T05:37:02.789Z,22.4
2018-09-30T05:38:07.757Z,22.4
2018-09-30T05:39:13.055Z,22.4
2018-09-30T05:40:18.796Z,22.4
2018-09-30T05:41:24.245Z,22.4
2018-09-30T05:42:30.165Z,22.4
2018-09-30T05:43:35.582Z,22.4
2018-09-30T05:44:40.447Z,22.4
2018-09-30T05:45:46.126Z,22.4
2018-09-30T05:46:51.362Z,22.4
2018-09-30T05:47:56.598Z,22.4
2018-09-30T05:49:01.738Z,22.4
2018-09-30T05:50:06.352Z,22.4
2018-09-30T05:51:11.235Z,22.4
2018-09-30T05:52:16.639Z,22.4
2018-09-30T05:53:21.812Z,22.4
2018-09-30T05:54:27.233Z,22.4
2018-09-30T05:55:32.411Z,22.4
2018-09-30T05:56:37.633Z,22.4
2018-09-30T05:57:43.688Z,22.4
2018-09-30T05:58:49.460Z,22.4
2018-09-30T05:59:54.891Z,22.4
2018-09-30T06:01:00.728Z,22.4
2018-09-30T06:02:05.349Z,22.4
2018-09-30T06:03:10.569Z,22.4
2018-09-30T06:04:16.421Z,22.4
2018-09-30T06:05:21.589Z,22.4
2018-09-30T06:06:27.332Z,22.5
2018-09-30T06:07:32.794Z,22.4
2018-09-30T06:08:37.690Z,22.5
2018-09-30T06:09:43.148Z,22.4
2018-09-30T06:10:48.583Z,22.5
2018-09-30T06:11:53.456Z,22.4
2018-09-30T06:12:58.749Z,22.4
2018-09-30T06:14:04.329Z,22.4
2018-09-30T06:15:09.676Z,22.4
2018-09-30T06:16:14.816Z,22.4
2018-09-30T06:17:20.009Z,22.4
2018-09-30T06:18:25.620Z,22.4
2018-09-30T06:19:30.197Z,22.4
2018-09-30T06:20:35.672Z,22.5
2018-09-30T06:21:41.099Z,22.5
2018-09-30T06:22:46.530Z,22.5
2018-09-30T06:23:51.420Z,22.4
2018-09-30T06:24:57.243Z,22.5
2018-09-30T06:26:02.670Z,22.4
2018-09-30T06:27:07.589Z,22.5
2018-09-30T06:28:13.306Z,22.5
2018-09-30T06:29:18.511Z,22.5
2018-09-30T06:30:23.991Z,22.4
2018-09-30T06:31:44.056Z,22.5
2018-09-30T06:32:49.862Z,22.5
2018-09-30T06:33:55.597Z,22.5
2018-09-30T06:35:00.229Z,22.5
2018-09-30T06:36:05.665Z,22.5
2018-09-30T06:37:11.326Z,22.5
2018-09-30T06:38:16.874Z,22.5
2018-09-30T06:39:21.753Z,22.5
2018-09-30T06:40:27.294Z,22.5
2018-09-30T06:41:32.788Z,22.5
2018-09-30T06:42:38.157Z,22.5
2018-09-30T06:43:43.517Z,22.5
2018-09-30T06:44:48.503Z,22.5
2018-09-30T06:45:53.978Z,22.5
2018-09-30T06:46:58.880Z,22.5
2018-09-30T06:48:03.800Z,22.5
2018-09-30T06:49:08.797Z,22.5
2018-09-30T06:50:14.261Z,22.5
2018-09-30T06:51:19.413Z,22.5
2018-09-30T06:52:25.156Z,22.5
2018-09-30T06:53:29.738Z,22.5
2018-09-30T06:54:34.730Z,22.5
2018-09-30T06:55:40.210Z,22.5
2018-09-30T06:56:45.366Z,22.5
2018-09-30T06:57:51.044Z,22.5
2018-09-30T06:58:56.227Z,22.5
2018-09-30T07:00:01.423Z,22.5
2018-09-30T07:01:07.150Z,22.5
2018-09-30T07:02:12.598Z,22.5
2018-09-30T07:03:17.844Z,22.5
2018-09-30T07:04:23.683Z,22.5
2018-09-30T07:05:28.554Z,22.5
2018-09-30T07:06:33.980Z,22.5
2018-09-30T07:07:39.131Z,22.5
2018-09-30T07:08:44.030Z,22.5
2018-09-30T07:09:49.531Z,22.5
2018-09-30T07:10:54.205Z,22.5
2018-09-30T07:12:00.592Z,22.5
2018-09-30T07:13:06.304Z,22.5
2018-09-30T07:14:11.472Z,22.5
2018-09-30T07:15:16.952Z,22.5
2018-09-30T07:16:22.107Z,22.5
2018-09-30T07:17:27.304Z,22.5
2018-09-30T07:18:32.734Z,22.5
2018-09-30T07:19:37.879Z,22.5
2018-09-30T07:20:43.055Z,22.5
2018-09-30T07:21:49.071Z,22.5
2018-09-30T07:22:54.495Z,22.5
2018-09-30T07:23:59.457Z,22.5
2018-09-30T07:25:04.917Z,22.5
2018-09-30T07:26:09.856Z,22.5
2018-09-30T07:27:14.995Z,22.5
2018-09-30T07:28:20.163Z,22.5
2018-09-30T07:29:25.670Z,22.5
2018-09-30T07:30:31.540Z,22.5
2018-09-30T07:31:36.967Z,22.5
2018-09-30T07:32:42.448Z,22.5
2018-09-30T07:33:47.755Z,22.6
2018-09-30T07:34:53.280Z,22.5
2018-09-30T07:35:58.432Z,22.5
2018-09-30T07:37:04.645Z,22.5
2018-09-30T07:38:09.815Z,22.5
2018-09-30T07:39:15.302Z,22.6
2018-09-30T07:40:20.767Z,22.6
2018-09-30T07:41:26.186Z,22.6
2018-09-30T07:42:31.308Z,22.6
2018-09-30T07:43:36.799Z,22.6
2018-09-30T07:44:41.950Z,22.6
2018-09-30T07:45:47.657Z,22.6
2018-09-30T07:46:53.167Z,22.6
2018-09-30T07:47:58.656Z,22.6
2018-09-30T07:49:04.548Z,22.6
2018-09-30T07:50:10.035Z,22.6
2018-09-30T07:51:15.462Z,22.6
2018-09-30T07:52:20.627Z,22.6
2018-09-30T07:53:26.222Z,22.6
2018-09-30T07:54:32.114Z,22.6
2018-09-30T07:55:37.264Z,22.6
2018-09-30T07:56:42.435Z,22.6
2018-09-30T07:57:48.283Z,22.6
2018-09-30T07:58:53.783Z,22.6
2018-09-30T07:59:58.645Z,22.6
2018-09-30T08:01:03.576Z,22.6
2018-09-30T08:02:08.920Z,22.6
2018-09-30T08:03:14.355Z,22.6
2018-09-30T08:04:19.610Z,22.6
2018-09-30T08:05:24.639Z,22.6
2018-09-30T08:06:30.637Z,22.6
2018-09-30T08:07:36.399Z,22.6
2018-09-30T08:08:41.894Z,22.6
2018-09-30T08:09:47.438Z,22.6
2018-09-30T08:10:52.591Z,22.6
2018-09-30T08:11:57.485Z,22.6
2018-09-30T08:13:02.350Z,22.6
2018-09-30T08:14:06.763Z,22.6
2018-09-30T08:15:12.302Z,22.7
2018-09-30T08:16:17.187Z,22.6
2018-09-30T08:17:22.440Z,22.6
2018-09-30T08:18:28.207Z,22.6
2018-09-30T08:19:33.493Z,22.7
2018-09-30T08:20:38.396Z,22.7
2018-09-30T08:21:44.243Z,22.6
2018-09-30T08:22:49.392Z,22.7
2018-09-30T08:23:54.392Z,22.7
2018-09-30T08:25:00.621Z,22.6
2018-09-30T08:26:04.941Z,22.7
2018-09-30T08:27:10.082Z,22.7
2018-09-30T08:28:15.244Z,22.6
2018-09-30T08:29:19.857Z,22.7
2018-09-30T08:31:45.449Z,22.7
2018-09-30T08:32:50.597Z,22.7
2018-09-30T08:33:55.936Z,22.7
2018-09-30T08:35:01.362Z,22.7
2018-09-30T08:36:06.265Z,22.7
2018-09-30T08:37:12.002Z,22.7
2018-09-30T08:38:16.950Z,22.7
2018-09-30T08:39:21.846Z,22.7
2018-09-30T08:40:27.415Z,22.7
2018-09-30T08:41:32.673Z,22.7
2018-09-30T08:42:38.353Z,22.7
2018-09-30T08:43:43.885Z,22.7
2018-09-30T08:44:49.695Z,22.7
2018-09-30T08:45:55.308Z,22.7
2018-09-30T08:46:59.922Z,22.7
2018-09-30T08:48:04.890Z,22.7
2018-09-30T08:49:10.401Z,22.7
2018-09-30T08:50:15.930Z,22.7
2018-09-30T08:51:21.097Z,22.7
2018-09-30T08:52:26.696Z,22.7
2018-09-30T08:53:31.562Z,22.7
2018-09-30T08:54:37.501Z,22.7
2018-09-30T08:55:42.656Z,22.7
2018-09-30T08:56:48.095Z,22.7
2018-09-30T08:57:53.246Z,22.7
2018-09-30T08:58:57.860Z,22.7
2018-09-30T09:00:01.681Z,22.7
2018-09-30T09:01:07.038Z,22.8
2018-09-30T09:02:12.202Z,22.8
2018-09-30T09:03:17.406Z,22.8
2018-09-30T09:04:22.730Z,22.8
2018-09-30T09:05:27.661Z,22.8
2018-09-30T09:06:33.225Z,22.8
2018-09-30T09:07:38.683Z,22.8
2018-09-30T09:08:44.192Z,22.8
2018-09-30T09:09:49.477Z,22.8
2018-09-30T09:10:54.634Z,22.8
2018-09-30T09:12:00.128Z,22.8
2018-09-30T09:13:05.412Z,22.8
2018-09-30T09:14:10.774Z,22.8
2018-09-30T09:15:16.294Z,22.8
2018-09-30T09:16:22.067Z,22.8
2018-09-30T09:17:27.273Z,22.8
2018-09-30T09:18:33.065Z,22.8
2018-09-30T09:19:38.253Z,22.8
2018-09-30T09:20:43.271Z,22.8
2018-09-30T09:21:48.951Z,22.8
2018-09-30T09:22:54.529Z,22.8
2018-09-30T09:23:59.660Z,22.8
2018-09-30T09:25:05.214Z,22.8
2018-09-30T09:26:10.407Z,22.8
2018-09-30T09:27:15.895Z,22.9
2018-09-30T09:28:21.445Z,22.8
2018-09-30T09:29:26.637Z,22.9
2018-09-30T09:30:32.224Z,22.9
2018-09-30T09:31:36.817Z,22.8
2018-09-30T09:32:42.664Z,22.9
2018-09-30T09:33:48.526Z,22.9
2018-09-30T09:34:53.775Z,22.9
2018-09-30T09:35:58.165Z,22.9
2018-09-30T09:37:03.302Z,22.9
2018-09-30T09:38:08.452Z,22.9
2018-09-30T09:39:13.622Z,22.9
2018-09-30T09:40:19.208Z,22.9
2018-09-30T09:41:24.658Z,22.9
2018-09-30T09:42:30.419Z,22.9
2018-09-30T09:43:35.633Z,22.9
2018-09-30T09:44:41.067Z,22.9
2018-09-30T09:45:46.754Z,22.9
2018-09-30T09:46:51.979Z,22.9
2018-09-30T09:47:57.625Z,22.9
2018-09-30T09:49:03.028Z,22.9
2018-09-30T09:50:08.179Z,22.9
2018-09-30T09:51:13.607Z,22.9
2018-09-30T09:52:19.378Z,22.9
2018-09-30T09:53:25.180Z,22.9
2018-09-30T09:54:30.376Z,22.9
2018-09-30T09:55:35.246Z,22.9
2018-09-30T09:56:40.699Z,22.9
2018-09-30T09:57:46.624Z,22.9
2018-09-30T09:58:51.953Z,22.9
2018-09-30T09:59:57.764Z,22.9
2018-09-30T10:01:03.050Z,22.9
2018-09-30T10:02:08.523Z,22.9
2018-09-30T10:03:13.998Z,22.9
2018-09-30T10:04:19.552Z,22.9
2018-09-30T10:05:24.704Z,22.9
2018-09-30T10:06:30.158Z,23
2018-09-30T10:07:35.596Z,23
2018-09-30T10:08:40.838Z,23
2018-09-30T10:09:46.651Z,23
2018-09-30T10:10:51.668Z,23
2018-09-30T10:11:57.168Z,23
2018-09-30T10:13:02.475Z,23
2018-09-30T10:14:07.924Z,23
2018-09-30T10:15:12.858Z,23
2018-09-30T10:16:18.306Z,23
2018-09-30T10:17:23.741Z,23
2018-09-30T10:18:29.684Z,23
2018-09-30T10:19:35.188Z,23
2018-09-30T10:20:40.842Z,23
2018-09-30T10:21:46.298Z,23
2018-09-30T10:22:51.243Z,23
2018-09-30T10:23:56.718Z,23
2018-09-30T10:25:02.203Z,23
2018-09-30T10:26:06.797Z,23
2018-09-30T10:27:11.667Z,23
2018-09-30T10:28:16.481Z,23
2018-09-30T10:29:21.931Z,23
2018-09-30T10:30:27.367Z,23
2018-09-30T10:31:32.631Z,23
2018-09-30T10:32:38.067Z,23
2018-09-30T10:33:43.327Z,23
2018-09-30T10:34:48.486Z,23
2018-09-30T10:35:53.944Z,23
2018-09-30T10:36:59.552Z,23
2018-09-30T10:38:04.457Z,23
2018-09-30T10:39:09.570Z,23
2018-09-30T10:40:17.281Z,23
2018-09-30T10:41:22.711Z,23
2018-09-30T10:42:28.299Z,23
2018-09-30T10:43:33.166Z,23.1
2018-09-30T10:44:38.596Z,23.1
2018-09-30T10:45:44.038Z,23.1
2018-09-30T10:46:49.219Z,23.1
2018-09-30T10:47:54.407Z,23.1
2018-09-30T10:48:59.562Z,23.1
2018-09-30T10:50:04.717Z,23.1
2018-09-30T10:51:09.341Z,23.1
2018-09-30T10:52:15.028Z,23.1
2018-09-30T10:53:20.475Z,23.1
2018-09-30T10:54:26.030Z,23.1
2018-09-30T10:55:30.621Z,23.1
2018-09-30T10:56:35.774Z,23.1
2018-09-30T10:57:41.747Z,23.1
2018-09-30T10:58:46.332Z,23.1
2018-09-30T10:59:51.761Z,23.1
2018-09-30T11:00:57.540Z,23.1
2018-09-30T11:02:03.132Z,23.1
2018-09-30T11:03:08.394Z,23.1
2018-09-30T11:04:13.699Z,23.1
2018-09-30T11:05:18.583Z,23.1
2018-09-30T11:06:24.013Z,23.1
2018-09-30T11:07:44.154Z,23.1
2018-09-30T11:08:49.588Z,23.1
2018-09-30T11:09:55.117Z,23.1
2018-09-30T11:11:00.721Z,23.1
2018-09-30T11:12:05.594Z,23.1
2018-09-30T11:13:11.097Z,23.1
2018-09-30T11:14:16.326Z,23.1
2018-09-30T11:15:21.046Z,23.1
2018-09-30T11:16:27.098Z,23.1
2018-09-30T11:17:32.002Z,23.2
2018-09-30T11:18:36.943Z,23.2
2018-09-30T11:19:41.893Z,23.2
2018-09-30T11:20:47.115Z,23.2
2018-09-30T11:21:53.327Z,23.2
2018-09-30T11:22:58.479Z,23.2
2018-09-30T11:24:03.372Z,23.2
2018-09-30T11:25:08.763Z,23.2
2018-09-30T11:26:13.997Z,23.2
2018-09-30T11:27:19.205Z,23.2
2018-09-30T11:28:24.754Z,23.2
2018-09-30T11:29:29.905Z,23.2
2018-09-30T11:30:35.509Z,23.2
2018-09-30T11:31:40.728Z,23.2
2018-09-30T11:32:46.071Z,23.2
2018-09-30T11:33:51.852Z,23.2
2018-09-30T11:34:57.112Z,23.2
2018-09-30T11:36:02.260Z,23.2
2018-09-30T11:37:08.108Z,23.2
2018-09-30T11:38:13.547Z,23.2
2018-09-30T11:39:18.136Z,23.2
2018-09-30T11:40:23.309Z,23.2
2018-09-30T11:41:28.756Z,23.2
2018-09-30T11:42:34.493Z,23.2
2018-09-30T11:43:39.680Z,23.2
2018-09-30T11:44:44.547Z,23.2
2018-09-30T11:45:50.528Z,23.2
2018-09-30T11:46:55.422Z,23.2
2018-09-30T11:48:00.031Z,23.2
2018-09-30T11:49:04.960Z,23.2
2018-09-30T11:50:10.113Z,23.2
2018-09-30T11:51:15.408Z,23.2
2018-09-30T11:52:20.955Z,23.3
2018-09-30T11:53:26.102Z,23.2
2018-09-30T11:54:31.902Z,23.3
2018-09-30T11:55:36.815Z,23.3
2018-09-30T11:56:42.242Z,23.3
2018-09-30T11:57:47.822Z,23.3
2018-09-30T11:58:52.977Z,23.3
2018-09-30T11:59:57.298Z,23.3
2018-09-30T12:01:03.094Z,23.3
2018-09-30T12:02:08.650Z,23.3
2018-09-30T12:03:13.994Z,23.3
2018-09-30T12:04:19.535Z,23.3
2018-09-30T12:05:24.412Z,23.3
2018-09-30T12:06:29.718Z,23.3
2018-09-30T12:07:35.223Z,23.3
2018-09-30T12:08:39.848Z,23.3
2018-09-30T12:09:45.388Z,23.3
2018-09-30T12:10:50.886Z,23.3
2018-09-30T12:11:56.118Z,23.3
2018-09-30T12:13:01.759Z,23.3
2018-09-30T12:14:06.061Z,23.3
2018-09-30T12:15:11.216Z,23.3
2018-09-30T12:16:16.608Z,23.3
2018-09-30T12:17:21.551Z,23.3
2018-09-30T12:18:26.554Z,23.3
2018-09-30T12:19:31.740Z,23.3
2018-09-30T12:20:37.175Z,23.3
2018-09-30T12:21:42.618Z,23.3
2018-09-30T12:22:47.797Z,23.3
2018-09-30T12:23:53.017Z,23.3
2018-09-30T12:24:58.742Z,23.3
2018-09-30T12:26:04.183Z,23.3
2018-09-30T12:27:09.057Z,23.3
2018-09-30T12:28:14.597Z,23.3
2018-09-30T12:29:19.756Z,23.3
2018-09-30T12:30:24.626Z,23.3
2018-09-30T12:31:45.079Z,23.3
2018-09-30T12:32:50.514Z,23.4
2018-09-30T12:33:56.197Z,23.4
2018-09-30T12:35:01.344Z,23.4
2018-09-30T12:36:05.940Z,23.4
2018-09-30T12:37:11.428Z,23.4
2018-09-30T12:38:16.880Z,23.4
2018-09-30T12:39:22.370Z,23.4
2018-09-30T12:40:42.826Z,23.4
2018-09-30T12:41:47.724Z,23.4
2018-09-30T12:42:52.968Z,23.4
2018-09-30T12:43:58.401Z,23.4
2018-09-30T12:45:02.697Z,23.4
2018-09-30T12:46:08.419Z,23.4
2018-09-30T12:47:13.602Z,23.4
2018-09-30T12:48:18.760Z,23.4
2018-09-30T12:49:24.701Z,23.4
2018-09-30T12:50:28.749Z,23.4
2018-09-30T12:51:33.749Z,23.4
2018-09-30T12:52:38.985Z,23.4
2018-09-30T12:53:44.154Z,23.4
2018-09-30T12:54:49.560Z,23.4
2018-09-30T12:55:54.737Z,23.4
2018-09-30T12:57:00.232Z,23.4
2018-09-30T12:58:05.902Z,23.4
2018-09-30T12:59:11.525Z,23.4
2018-09-30T13:00:17.248Z,23.4
2018-09-30T13:01:23.079Z,23.4
2018-09-30T13:02:28.510Z,23.4
2018-09-30T13:03:34.077Z,23.4
2018-09-30T13:04:39.234Z,23.4
2018-09-30T13:05:44.192Z,23.4
2018-09-30T13:06:50.575Z,23.4
2018-09-30T13:07:56.003Z,23.4
2018-09-30T13:09:01.201Z,23.4
2018-09-30T13:10:05.465Z,23.4
2018-09-30T13:11:10.340Z,23.4
2018-09-30T13:12:15.781Z,23.4
2018-09-30T13:13:21.258Z,23.4
2018-09-30T13:14:26.239Z,23.4
2018-09-30T13:15:31.893Z,23.4
2018-09-30T13:16:37.319Z,23.4
2018-09-30T13:17:42.774Z,23.4
2018-09-30T13:18:47.708Z,23.4
2018-09-30T13:19:52.872Z,23.4
2018-09-30T13:20:58.045Z,23.4
2018-09-30T13:22:03.914Z,23.5
2018-09-30T13:23:09.100Z,23.5
2018-09-30T13:24:14.303Z,23.4
2018-09-30T13:25:19.699Z,23.5
2018-09-30T13:26:24.853Z,23.4
2018-09-30T13:27:30.601Z,23.5
2018-09-30T13:28:35.516Z,23.5
2018-09-30T13:29:41.146Z,23.5
2018-09-30T13:30:46.974Z,23.5
2018-09-30T13:31:52.403Z,23.5
2018-09-30T13:32:57.838Z,23.5
2018-09-30T13:34:03.860Z,23.5
2018-09-30T13:35:08.820Z,23.5
2018-09-30T13:36:13.408Z,23.5
2018-09-30T13:37:19.009Z,23.5
2018-09-30T13:38:24.495Z,23.5
2018-09-30T13:39:30.298Z,23.5
2018-09-30T13:40:35.378Z,23.5
2018-09-30T13:41:41.702Z,23.5
2018-09-30T13:42:46.955Z,23.5
2018-09-30T13:43:52.432Z,23.5
2018-09-30T13:44:57.917Z,23.5
2018-09-30T13:46:03.053Z,23.5
2018-09-30T13:47:08.514Z,23.5
2018-09-30T13:48:13.394Z,23.5
2018-09-30T13:49:18.537Z,23.5
2018-09-30T13:50:23.737Z,23.5
2018-09-30T13:51:29.811Z,23.5
2018-09-30T13:52:34.961Z,23.5
2018-09-30T13:53:40.429Z,23.5
2018-09-30T13:54:45.999Z,23.5
2018-09-30T13:55:51.230Z,23.5
2018-09-30T13:56:56.453Z,23.5
2018-09-30T13:58:01.857Z,23.5
2018-09-30T13:59:06.170Z,23.5
2018-09-30T14:00:11.670Z,23.5
2018-09-30T14:01:16.515Z,23.5
2018-09-30T14:02:21.679Z,23.5
2018-09-30T14:03:27.062Z,23.5
2018-09-30T14:04:32.249Z,23.5
2018-09-30T14:05:36.835Z,23.5
2018-09-30T14:06:41.718Z,23.5
2018-09-30T14:07:46.945Z,23.5
2018-09-30T14:08:52.183Z,23.5
2018-09-30T14:09:57.030Z,23.5
2018-09-30T14:11:02.187Z,23.5
2018-09-30T14:12:07.120Z,23.5
2018-09-30T14:13:12.966Z,23.5
2018-09-30T14:14:18.496Z,23.5
2018-09-30T14:15:23.669Z,23.5
2018-09-30T14:16:44.280Z,23.6
2018-09-30T14:17:49.720Z,23.6
2018-09-30T14:18:54.734Z,23.6
2018-09-30T14:20:00.176Z,23.6
2018-09-30T14:21:05.039Z,23.6
2018-09-30T14:22:10.834Z,23.6
2018-09-30T14:23:16.185Z,23.6
2018-09-30T14:24:21.329Z,23.6
2018-09-30T14:25:27.063Z,23.6
2018-09-30T14:26:32.497Z,23.6
2018-09-30T14:27:37.925Z,23.6
2018-09-30T14:28:42.918Z,23.6
2018-09-30T14:29:47.672Z,23.6
2018-09-30T14:30:53.228Z,23.6
2018-09-30T14:31:58.687Z,23.6
2018-09-30T14:33:04.115Z,23.6
2018-09-30T14:34:09.542Z,23.6
2018-09-30T14:35:14.454Z,23.6
2018-09-30T14:36:19.979Z,23.6